createdAt,value
2023-04-09T00:00:26.138Z,92.67
2023-04-09T00:05:49.336Z,92.11
2023-04-09T00:10:53.399Z,91.73
2023-04-09T00:15:56.493Z,91.20
2023-04-09T00:20:59.492Z,91.08
2023-04-09T00:26:02.389Z,90.81
2023-04-09T00:31:05.697Z,90.73
2023-04-09T00:36:08.659Z,90.39
2023-04-09T00:41:11.720Z,90.61
2023-04-09T00:46:14.824Z,90.22
2023-04-09T00:51:18.006Z,90.48
2023-04-09T00:56:21.616Z,90.58
2023-04-09T01:01:24.586Z,90.20
2023-04-09T01:06:52.219Z,90.08
2023-04-09T01:12:36.994Z,90.01
2023-04-09T01:17:48.619Z,89.94
2023-04-09T01:23:19.042Z,89.93
2023-04-09T01:28:36.993Z,89.56
2023-04-09T01:33:41.087Z,89.91
2023-04-09T01:38:44.158Z,89.72
2023-04-09T01:43:48.248Z,89.78
2023-04-09T01:48:51.361Z,89.78
2023-04-09T01:53:54.612Z,90.30
2023-04-09T01:58:57.418Z,89.94
2023-04-09T02:04:05.318Z,90.06
2023-04-09T02:09:09.430Z,90.72
2023-04-09T02:14:12.240Z,90.44
2023-04-09T02:19:15.720Z,90.84
2023-04-09T02:24:18.623Z,90.67
2023-04-09T02:29:21.631Z,90.59
2023-04-09T02:34:24.688Z,90.54
2023-04-09T02:39:27.640Z,91.03
2023-04-09T02:44:30.722Z,91.07
2023-04-09T02:49:33.608Z,91.03
2023-04-09T02:54:36.509Z,91.38
2023-04-09T02:59:40.746Z,91.01
2023-04-09T03:04:43.581Z,91.18
2023-04-09T03:09:46.437Z,91.64
2023-04-09T03:14:49.263Z,91.73
2023-04-09T03:19:52.492Z,91.74
2023-04-09T03:24:56.253Z,91.44
2023-04-09T03:29:59.208Z,92.02
2023-04-09T03:35:02.271Z,92.25
2023-04-09T03:40:06.537Z,92.19
2023-04-09T03:45:09.799Z,92.17
2023-04-09T03:50:12.718Z,91.91
2023-04-09T03:55:15.572Z,91.58
2023-04-09T04:00:18.540Z,91.63
2023-04-09T04:05:25.521Z,91.91
2023-04-09T04:10:28.664Z,92.04
2023-04-09T04:15:31.720Z,92.19
2023-04-09T04:20:35.116Z,91.90
2023-04-09T04:25:42.019Z,91.71
2023-04-09T04:30:45.063Z,91.95
2023-04-09T04:35:47.952Z,92.09
2023-04-09T04:40:50.852Z,92.25
2023-04-09T04:45:54.166Z,92.68
2023-04-09T04:51:01.397Z,92.83
2023-04-09T04:56:05.345Z,93.06
2023-04-09T05:01:08.409Z,93.32
2023-04-09T05:06:12.092Z,93.46
2023-04-09T05:11:17.010Z,93.69
2023-04-09T05:16:20.876Z,93.94
2023-04-09T05:21:23.715Z,94.02
2023-04-09T05:26:27.166Z,93.94
2023-04-09T05:31:30.033Z,94.00
2023-04-09T05:36:32.904Z,93.61
2023-04-09T05:41:37.517Z,93.91
2023-04-09T05:46:40.594Z,93.74
2023-04-09T05:51:43.458Z,94.06
2023-04-09T05:56:46.308Z,94.77
2023-04-09T06:01:49.313Z,94.56
2023-04-09T06:06:52.311Z,94.20
2023-04-09T06:11:56.520Z,93.66
2023-04-09T06:17:00.080Z,93.28
2023-04-09T06:22:03.015Z,93.30
2023-04-09T06:27:06.100Z,92.75
2023-04-09T06:32:08.996Z,92.10
2023-04-09T06:37:11.872Z,91.25
2023-04-09T06:42:14.846Z,90.77
2023-04-09T06:47:17.851Z,90.09
2023-04-09T06:52:20.787Z,89.73
2023-04-09T06:57:23.855Z,88.82
2023-04-09T07:02:27.756Z,88.58
2023-04-09T07:07:31.771Z,87.88
2023-04-09T07:12:35.723Z,87.48
2023-04-09T07:17:38.729Z,86.76
2023-04-09T07:22:43.372Z,86.06
2023-04-09T07:27:46.315Z,85.53
2023-04-09T07:32:49.272Z,84.57
2023-04-09T07:37:52.303Z,84.04
2023-04-09T07:42:56.020Z,83.67
2023-04-09T07:47:59.067Z,83.40
2023-04-09T07:53:02.116Z,82.57
2023-04-09T07:58:06.068Z,81.83
2023-04-09T08:03:10.091Z,80.54
2023-04-09T08:08:13.357Z,78.25
2023-04-09T08:13:17.016Z,76.99
2023-04-09T08:18:19.901Z,78.21
2023-04-09T08:23:22.731Z,76.72
2023-04-09T08:28:25.698Z,75.99
2023-04-09T08:33:28.574Z,75.57
2023-04-09T08:38:31.946Z,73.21
2023-04-09T08:43:56.487Z,72.79
2023-04-09T08:48:57.971Z,72.38
2023-04-09T08:54:04.368Z,71.79
2023-04-09T08:59:09.584Z,71.38
2023-04-09T09:04:12.665Z,70.10
2023-04-09T09:09:16.697Z,70.00
2023-04-09T09:14:19.874Z,69.45
2023-04-09T09:19:25.758Z,68.54
2023-04-09T09:24:29.049Z,67.56
2023-04-09T09:29:31.994Z,66.99
2023-04-09T09:34:34.824Z,64.89
2023-04-09T09:39:46.661Z,65.02
2023-04-09T09:44:50.638Z,64.71
2023-04-09T09:49:54.650Z,63.97
2023-04-09T09:54:58.942Z,60.91
2023-04-09T10:00:03.896Z,62.50
2023-04-09T10:05:07.711Z,61.52
2023-04-09T10:10:10.696Z,60.86
2023-04-09T10:15:13.649Z,60.01
2023-04-09T10:21:10.139Z,60.14
2023-04-09T10:26:12.946Z,61.77
2023-04-09T10:31:16.035Z,60.66
2023-04-09T10:36:19.072Z,58.81
2023-04-09T10:41:23.634Z,59.12
2023-04-09T10:46:36.866Z,59.16
2023-04-09T10:51:40.435Z,58.77
2023-04-09T10:57:24.617Z,59.95
2023-04-09T11:02:45.733Z,57.84
2023-04-09T11:08:08.207Z,57.09
2023-04-09T11:13:15.832Z,53.79
2023-04-09T11:18:26.686Z,49.44
2023-04-09T11:23:29.792Z,47.87
2023-04-09T11:28:34.750Z,45.59
2023-04-09T11:33:37.684Z,46.73
2023-04-09T11:38:40.497Z,49.83
2023-04-09T11:43:43.455Z,50.26
2023-04-09T11:48:46.852Z,51.18
2023-04-09T11:53:49.866Z,49.06
2023-04-09T11:58:52.790Z,48.66
2023-04-09T12:03:56.324Z,43.66
2023-04-09T12:08:59.628Z,43.70
2023-04-09T12:14:03.063Z,45.01
2023-04-09T12:19:09.828Z,44.87
2023-04-09T12:24:13.049Z,46.91
2023-04-09T12:29:20.690Z,47.82
2023-04-09T12:34:23.493Z,47.75
2023-04-09T12:39:26.453Z,48.90
2023-04-09T12:44:29.305Z,49.57
2023-04-09T12:49:33.155Z,49.89
2023-04-09T12:54:36.237Z,50.38
2023-04-09T12:59:39.080Z,50.75
2023-04-09T13:04:42.785Z,50.31
2023-04-09T13:09:46.131Z,49.65
2023-04-09T13:14:49.838Z,51.26
2023-04-09T13:19:52.826Z,53.97
2023-04-09T13:24:55.780Z,54.31
2023-04-09T13:29:58.697Z,55.21
2023-04-09T13:35:01.847Z,55.95
2023-04-09T13:40:06.041Z,55.78
2023-04-09T13:45:09.372Z,57.49
2023-04-09T13:50:13.810Z,58.24
2023-04-09T13:55:16.754Z,58.70
2023-04-09T14:00:20.733Z,59.68
2023-04-09T14:05:23.621Z,60.14
2023-04-09T14:10:27.672Z,60.51
2023-04-09T14:15:30.526Z,51.02
2023-04-09T14:20:35.610Z,43.93
2023-04-09T14:25:38.634Z,43.19
2023-04-09T14:30:41.511Z,42.50
2023-04-09T14:35:44.447Z,39.94
2023-04-09T14:40:47.526Z,32.19
2023-04-09T14:45:50.663Z,31.10
2023-04-09T14:50:53.549Z,29.74
2023-04-09T14:55:56.408Z,27.93
2023-04-09T15:00:59.256Z,28.96
2023-04-09T15:06:02.190Z,31.72
2023-04-09T15:11:05.335Z,30.60
2023-04-09T15:16:08.535Z,32.31
2023-04-09T15:21:11.478Z,36.45
2023-04-09T15:26:14.341Z,40.27
2023-04-09T15:31:17.466Z,42.11
2023-04-09T15:36:20.438Z,42.75
2023-04-09T15:41:24.156Z,43.89
2023-04-09T15:46:27.130Z,45.40
2023-04-09T15:51:30.098Z,45.45
2023-04-09T15:56:33.119Z,45.84
2023-04-09T16:01:36.374Z,45.59
2023-04-09T16:06:39.639Z,46.24
2023-04-09T16:11:42.556Z,46.48
2023-04-09T16:16:49.985Z,47.12
2023-04-09T16:21:53.250Z,47.31
2023-04-09T16:26:57.033Z,48.65
2023-04-09T16:31:59.968Z,50.38
2023-04-09T16:37:03.017Z,51.32
2023-04-09T16:42:05.989Z,51.29
2023-04-09T16:47:09.207Z,51.78
2023-04-09T16:52:12.103Z,53.31
2023-04-09T16:57:15.611Z,54.25
2023-04-09T17:02:21.727Z,55.39
2023-04-09T17:07:24.834Z,56.48
2023-04-09T17:12:27.854Z,56.85
2023-04-09T17:17:31.525Z,56.93
2023-04-09T17:22:35.318Z,58.46
2023-04-09T17:27:38.485Z,59.83
2023-04-09T17:32:43.758Z,60.32
2023-04-09T17:37:46.903Z,61.10
2023-04-09T17:42:50.033Z,60.62
2023-04-09T17:47:53.226Z,61.50
2023-04-09T17:52:56.767Z,61.96
2023-04-09T17:57:59.646Z,62.12
2023-04-09T18:03:03.092Z,62.93
2023-04-09T18:08:07.370Z,63.66
2023-04-09T18:13:10.700Z,64.03
2023-04-09T18:18:13.619Z,65.06
2023-04-09T18:23:16.869Z,66.98
2023-04-09T18:28:19.760Z,69.21
2023-04-09T18:33:22.961Z,70.38
2023-04-09T18:38:28.699Z,70.93
2023-04-09T18:43:32.008Z,72.93
2023-04-09T18:48:35.197Z,75.40
2023-04-09T18:53:38.132Z,76.26
2023-04-09T18:58:42.210Z,76.89
2023-04-09T19:03:46.596Z,77.36
2023-04-09T19:08:50.406Z,77.78
2023-04-09T19:13:53.885Z,77.51
2023-04-09T19:18:56.823Z,76.46
2023-04-09T19:24:00.432Z,77.09
2023-04-09T19:29:05.379Z,77.51
2023-04-09T19:34:10.770Z,76.83
2023-04-09T19:39:13.842Z,76.01
2023-04-09T19:44:16.786Z,75.95
2023-04-09T19:49:20.537Z,76.11
2023-04-09T19:54:23.681Z,75.92
2023-04-09T19:59:26.573Z,75.83
2023-04-09T20:04:31.055Z,76.10
2023-04-09T20:09:35.794Z,76.72
2023-04-09T20:14:39.461Z,76.14
2023-04-09T20:19:42.623Z,76.13
2023-04-09T20:24:45.708Z,76.48
2023-04-09T20:29:49.543Z,76.72
2023-04-09T20:34:52.440Z,76.74
2023-04-09T20:39:55.751Z,77.08
2023-04-09T20:45:01.372Z,77.39
2023-04-09T20:50:05.929Z,77.46
2023-04-09T20:55:09.358Z,77.75
2023-04-09T21:00:13.128Z,77.80
2023-04-09T21:05:23.288Z,77.96
2023-04-09T21:10:27.283Z,78.70
2023-04-09T21:15:30.480Z,79.99
2023-04-09T21:20:33.300Z,79.81
2023-04-09T21:25:36.382Z,80.39
2023-04-09T21:30:39.372Z,80.27
2023-04-09T21:35:42.218Z,80.77
2023-04-09T21:40:48.223Z,81.00
2023-04-09T21:45:51.208Z,81.43
2023-04-09T21:50:54.135Z,81.17
2023-04-09T21:55:57.081Z,82.27
2023-04-09T22:00:59.951Z,82.04
2023-04-09T22:06:03.111Z,82.29
2023-04-09T22:11:05.966Z,82.35
2023-04-09T22:16:09.185Z,82.72
2023-04-09T22:21:16.592Z,83.81
2023-04-09T22:26:19.842Z,83.42
2023-04-09T22:31:22.955Z,83.60
2023-04-09T22:36:27.322Z,83.62
2023-04-09T22:41:30.210Z,84.15
2023-04-09T22:46:34.889Z,83.71
2023-04-09T22:51:40.179Z,83.50
2023-04-09T22:56:45.367Z,84.16
2023-04-09T23:01:48.692Z,84.05
2023-04-09T23:06:51.669Z,84.10
2023-04-09T23:11:54.593Z,83.89
2023-04-09T23:16:57.997Z,84.89
2023-04-09T23:22:01.004Z,84.59
2023-04-09T23:27:03.966Z,84.95
2023-04-09T23:32:07.078Z,85.21
2023-04-09T23:37:10.280Z,85.27
2023-04-09T23:42:13.090Z,85.59
2023-04-09T23:47:16.512Z,85.56
2023-04-09T23:52:19.561Z,85.53
2023-04-09T23:57:22.558Z,85.43
